createdAt,value
2023-04-15T00:01:02.763Z,4.68
2023-04-15T00:03:29.962Z,4.57
2023-04-15T00:05:58.491Z,4.90
2023-04-15T00:08:25.528Z,4.97
2023-04-15T00:10:52.071Z,4.55
2023-04-15T00:13:18.820Z,4.47
2023-04-15T00:15:45.371Z,4.68
2023-04-15T00:18:11.990Z,4.72
2023-04-15T00:20:38.594Z,5.00
2023-04-15T00:23:05.724Z,5.93
2023-04-15T00:25:32.457Z,4.40
2023-04-15T00:27:59.066Z,4.90
2023-04-15T00:30:26.635Z,4.80
2023-04-15T00:32:53.805Z,5.25
2023-04-15T00:35:20.795Z,5.47
2023-04-15T00:37:47.442Z,5.68
2023-04-15T00:40:14.143Z,5.10
2023-04-15T00:42:41.188Z,5.40
2023-04-15T00:45:08.828Z,5.22
2023-04-15T00:47:37.758Z,5.38
2023-04-15T00:50:05.130Z,5.30
2023-04-15T00:52:32.827Z,5.90
2023-04-15T00:55:00.005Z,5.22
2023-04-15T00:57:28.559Z,5.03
2023-04-15T00:59:56.915Z,4.90
2023-04-15T01:02:24.121Z,5.20
2023-04-15T01:04:51.380Z,4.50
2023-04-15T01:07:18.018Z,4.30
2023-04-15T01:09:45.728Z,4.70
2023-04-15T01:12:15.559Z,4.43
2023-04-15T01:14:42.430Z,4.47
2023-04-15T01:17:09.091Z,4.30
2023-04-15T01:19:37.147Z,5.15
2023-04-15T01:22:05.324Z,5.22
2023-04-15T01:24:33.239Z,5.22
2023-04-15T01:26:59.997Z,5.35
2023-04-15T01:29:27.475Z,5.90
2023-04-15T01:31:56.201Z,5.38
2023-04-15T01:34:23.496Z,5.18
2023-04-15T01:36:50.134Z,5.20
2023-04-15T01:39:17.014Z,5.82
2023-04-15T01:41:43.950Z,5.45
2023-04-15T01:44:10.521Z,5.63
2023-04-15T01:46:37.197Z,5.03
2023-04-15T01:49:03.906Z,4.18
2023-04-15T01:51:30.505Z,4.93
2023-04-15T01:53:57.120Z,5.45
2023-04-15T01:56:26.710Z,5.10
2023-04-15T01:58:53.673Z,5.00
2023-04-15T02:01:20.850Z,4.80
2023-04-15T02:03:48.382Z,4.65
2023-04-15T02:06:15.240Z,5.05
2023-04-15T02:08:41.799Z,4.78
2023-04-15T02:11:08.509Z,4.70
2023-04-15T02:13:35.279Z,5.85
2023-04-15T02:16:01.886Z,4.88
2023-04-15T02:18:28.667Z,5.22
2023-04-15T02:20:57.432Z,5.00
2023-04-15T02:23:24.474Z,4.90
2023-04-15T02:25:53.831Z,5.03
2023-04-15T02:28:21.221Z,5.20
2023-04-15T02:30:50.954Z,5.07
2023-04-15T02:33:18.071Z,4.80
2023-04-15T02:35:45.546Z,5.38
2023-04-15T02:38:12.440Z,5.10
2023-04-15T02:40:39.009Z,4.95
2023-04-15T02:43:07.124Z,4.78
2023-04-15T02:45:33.970Z,4.60
2023-04-15T02:48:04.056Z,5.07
2023-04-15T02:50:31.712Z,4.78
2023-04-15T02:52:58.475Z,5.03
2023-04-15T02:55:25.072Z,5.05
2023-04-15T02:57:51.632Z,4.93
2023-04-15T03:00:18.439Z,4.60
2023-04-15T03:02:47.074Z,4.75
2023-04-15T03:05:15.071Z,4.65
2023-04-15T03:07:41.748Z,4.57
2023-04-15T03:10:08.990Z,4.53
2023-04-15T03:12:35.758Z,5.03
2023-04-15T03:15:02.316Z,4.85
2023-04-15T03:17:28.926Z,4.50
2023-04-15T03:19:55.665Z,4.90
2023-04-15T03:22:22.411Z,5.35
2023-04-15T03:24:48.960Z,4.75
2023-04-15T03:27:15.432Z,5.00
2023-04-15T03:29:41.921Z,4.97
2023-04-15T03:32:08.569Z,5.25
2023-04-15T03:34:35.083Z,4.93
2023-04-15T03:37:01.702Z,4.18
2023-04-15T03:39:28.309Z,4.75
2023-04-15T03:41:54.849Z,4.50
2023-04-15T03:44:21.555Z,4.90
2023-04-15T03:46:48.224Z,4.30
2023-04-15T03:49:14.814Z,4.93
2023-04-15T03:51:41.678Z,4.97
2023-04-15T03:54:08.220Z,4.10
2023-04-15T03:56:34.694Z,4.63
2023-04-15T03:59:01.441Z,4.57
2023-04-15T04:01:28.184Z,4.97
2023-04-15T04:03:54.827Z,4.65
2023-04-15T04:06:21.728Z,4.57
2023-04-15T04:08:48.331Z,4.93
2023-04-15T04:11:14.922Z,4.75
2023-04-15T04:13:41.905Z,5.03
2023-04-15T04:16:08.656Z,4.78
2023-04-15T04:18:35.448Z,4.43
2023-04-15T04:21:02.098Z,4.30
2023-04-15T04:23:28.756Z,5.18
2023-04-15T04:25:55.387Z,4.28
2023-04-15T04:28:22.310Z,4.90
2023-04-15T04:30:48.945Z,4.72
2023-04-15T04:33:15.727Z,4.28
2023-04-15T04:35:42.276Z,4.72
2023-04-15T04:38:08.852Z,4.55
2023-04-15T04:40:35.706Z,4.78
2023-04-15T04:43:02.355Z,4.43
2023-04-15T04:45:28.868Z,4.45
2023-04-15T04:47:55.658Z,4.47
2023-04-15T04:50:22.190Z,4.55
2023-04-15T04:52:49.009Z,4.55
2023-04-15T04:55:16.016Z,4.75
2023-04-15T04:57:42.652Z,5.10
2023-04-15T05:00:09.727Z,5.18
2023-04-15T05:02:36.970Z,4.28
2023-04-15T05:05:03.819Z,4.95
2023-04-15T05:07:30.546Z,4.45
2023-04-15T05:09:57.194Z,4.65
2023-04-15T05:12:23.783Z,5.07
2023-04-15T05:14:50.261Z,4.38
2023-04-15T05:17:16.862Z,4.72
2023-04-15T05:19:43.352Z,4.35
2023-04-15T05:22:10.020Z,4.97
2023-04-15T05:24:36.677Z,4.63
2023-04-15T05:27:03.707Z,4.60
2023-04-15T05:29:30.741Z,5.22
2023-04-15T05:31:57.476Z,5.28
2023-04-15T05:34:23.999Z,4.82
2023-04-15T05:36:50.612Z,5.03
2023-04-15T05:39:17.155Z,5.82
2023-04-15T05:41:43.796Z,5.20
2023-04-15T05:44:10.318Z,5.25
2023-04-15T05:46:37.267Z,5.90
2023-04-15T05:49:04.156Z,5.47
2023-04-15T05:51:31.206Z,5.53
2023-04-15T05:53:57.708Z,6.35
2023-04-15T05:56:24.924Z,5.30
2023-04-15T05:58:53.347Z,6.15
2023-04-15T06:01:20.740Z,6.60
2023-04-15T06:03:47.573Z,5.60
2023-04-15T06:06:15.528Z,5.55
2023-04-15T06:08:42.104Z,5.85
2023-04-15T06:11:08.672Z,6.13
2023-04-15T06:13:35.340Z,6.07
2023-04-15T06:16:02.265Z,5.18
2023-04-15T06:18:28.758Z,5.65
2023-04-15T06:20:55.354Z,5.00
2023-04-15T06:23:22.029Z,5.75
2023-04-15T06:25:48.931Z,5.85
2023-04-15T06:28:15.734Z,6.53
2023-04-15T06:30:43.004Z,5.82
2023-04-15T06:33:10.795Z,6.57
2023-04-15T06:35:37.894Z,7.38
2023-04-15T06:38:04.463Z,7.15
2023-04-15T06:40:33.158Z,8.43
2023-04-15T06:42:59.780Z,8.15
2023-04-15T06:45:26.691Z,7.72
2023-04-15T06:47:53.729Z,8.25
2023-04-15T06:50:20.346Z,6.68
2023-04-15T06:52:47.088Z,7.35
2023-04-15T06:55:14.774Z,6.45
2023-04-15T06:57:41.607Z,6.45
2023-04-15T07:00:08.740Z,6.63
2023-04-15T07:02:35.770Z,6.85
2023-04-15T07:05:02.449Z,6.53
2023-04-15T07:07:29.045Z,6.68
2023-04-15T07:09:55.778Z,6.63
2023-04-15T07:12:22.379Z,6.25
2023-04-15T07:14:49.678Z,6.63
2023-04-15T07:17:16.630Z,7.03
2023-04-15T07:19:43.228Z,6.65
2023-04-15T07:22:10.094Z,6.57
2023-04-15T07:24:36.885Z,6.93
2023-04-15T07:27:04.375Z,6.22
2023-04-15T07:29:31.471Z,6.25
2023-04-15T07:31:58.159Z,6.28
2023-04-15T07:34:24.833Z,6.45
2023-04-15T07:36:52.092Z,6.53
2023-04-15T07:39:19.148Z,6.70
2023-04-15T07:41:46.566Z,6.93
2023-04-15T07:44:13.360Z,7.05
2023-04-15T07:46:39.963Z,7.32
2023-04-15T07:49:07.837Z,6.22
2023-04-15T07:51:34.528Z,6.53
2023-04-15T07:54:00.958Z,4.80
2023-04-15T07:56:27.848Z,5.50
2023-04-15T07:58:54.343Z,5.20
2023-04-15T08:01:21.194Z,4.63
2023-04-15T08:03:48.586Z,4.95
2023-04-15T08:06:15.243Z,4.50
2023-04-15T08:08:41.812Z,4.43
2023-04-15T08:11:09.178Z,4.07
2023-04-15T08:13:36.093Z,4.60
2023-04-15T08:16:19.022Z,4.38
2023-04-15T08:18:47.341Z,4.32
2023-04-15T08:21:14.029Z,4.13
2023-04-15T08:23:41.061Z,4.20
2023-04-15T08:26:08.746Z,4.15
2023-04-15T08:28:36.271Z,3.63
2023-04-15T08:31:02.801Z,3.75
2023-04-15T08:33:29.490Z,3.90
2023-04-15T08:35:56.079Z,3.70
2023-04-15T08:38:22.847Z,3.50
2023-04-15T08:40:49.692Z,3.60
2023-04-15T08:43:26.548Z,3.33
2023-04-15T08:45:53.609Z,3.03
2023-04-15T08:48:20.945Z,3.15
2023-04-15T08:50:48.827Z,3.45
2023-04-15T08:53:16.430Z,3.17
2023-04-15T08:55:48.303Z,3.65
2023-04-15T08:58:15.749Z,3.42
2023-04-15T09:00:42.622Z,3.40
2023-04-15T09:03:09.720Z,3.38
2023-04-15T09:05:37.862Z,3.63
2023-04-15T09:08:05.756Z,3.60
2023-04-15T09:10:33.540Z,3.92
2023-04-15T09:13:02.209Z,3.55
2023-04-15T09:15:29.938Z,3.40
2023-04-15T09:17:57.136Z,3.60
2023-04-15T09:20:24.167Z,3.45
2023-04-15T09:22:52.118Z,3.08
2023-04-15T09:25:21.523Z,2.65
2023-04-15T09:27:56.852Z,2.88
2023-04-15T09:30:23.930Z,2.50
2023-04-15T09:32:56.733Z,2.33
2023-04-15T09:35:24.495Z,3.65
2023-04-15T09:37:51.431Z,3.05
2023-04-15T09:40:44.943Z,2.45
2023-04-15T09:43:14.730Z,2.70
2023-04-15T09:45:51.682Z,2.90
2023-04-15T09:48:27.374Z,2.85
2023-04-15T09:50:54.897Z,2.75
2023-04-15T09:53:23.677Z,3.45
2023-04-15T09:55:54.775Z,2.80
2023-04-15T09:58:29.039Z,2.50
2023-04-15T10:00:57.603Z,2.47
2023-04-15T10:03:29.345Z,2.65
2023-04-15T10:05:57.662Z,2.72
2023-04-15T10:08:27.054Z,3.20
2023-04-15T10:10:54.211Z,3.63
2023-04-15T10:13:25.675Z,3.33
2023-04-15T10:16:05.568Z,3.03
2023-04-15T10:18:35.638Z,2.05
2023-04-15T10:21:02.533Z,2.30
2023-04-15T10:23:29.330Z,2.22
2023-04-15T10:25:56.891Z,2.55
2023-04-15T10:28:23.241Z,2.55
2023-04-15T10:30:50.050Z,2.60
2023-04-15T10:33:24.519Z,2.33
2023-04-15T10:35:52.627Z,2.28
2023-04-15T10:38:42.653Z,2.22
2023-04-15T10:41:27.958Z,2.72
2023-04-15T10:43:56.865Z,2.63
2023-04-15T10:46:44.903Z,1.95
2023-04-15T10:49:16.993Z,2.40
2023-04-15T10:51:45.938Z,2.03
2023-04-15T10:54:16.318Z,2.30
2023-04-15T10:56:44.613Z,2.13
2023-04-15T10:59:11.534Z,2.60
2023-04-15T11:01:51.802Z,2.10
2023-04-15T11:04:57.659Z,1.80
2023-04-15T11:07:38.576Z,2.53
2023-04-15T11:10:31.344Z,2.13
2023-04-15T11:12:59.816Z,2.10
2023-04-15T11:15:32.167Z,1.75
2023-04-15T11:18:08.335Z,1.92
2023-04-15T11:20:35.531Z,2.15
2023-04-15T11:23:13.419Z,1.80
2023-04-15T11:25:43.171Z,1.83
2023-04-15T11:28:11.366Z,1.90
2023-04-15T11:30:39.912Z,1.63
2023-04-15T11:33:09.284Z,1.95
2023-04-15T11:35:36.187Z,2.30
2023-04-15T11:38:09.124Z,2.20
2023-04-15T11:40:36.297Z,1.98
2023-04-15T11:43:09.812Z,1.92
2023-04-15T11:45:38.599Z,2.10
2023-04-15T11:48:10.500Z,1.90
2023-04-15T11:50:40.595Z,2.35
2023-04-15T11:53:09.510Z,1.85
2023-04-15T11:55:50.926Z,2.13
2023-04-15T11:58:23.362Z,2.22
2023-04-15T12:01:07.924Z,1.60
2023-04-15T12:03:47.144Z,1.85
2023-04-15T12:06:20.990Z,1.77
2023-04-15T12:09:02.891Z,1.73
2023-04-15T12:11:31.018Z,2.10
2023-04-15T12:13:59.440Z,1.90
2023-04-15T12:16:28.002Z,3.05
2023-04-15T12:18:57.699Z,1.15
2023-04-15T12:21:33.685Z,1.50
2023-04-15T12:24:03.554Z,1.50
2023-04-15T12:26:33.633Z,1.13
2023-04-15T12:29:10.962Z,1.50
2023-04-15T12:31:38.022Z,1.75
2023-04-15T12:34:08.532Z,1.70
2023-04-15T12:36:38.035Z,1.50
2023-04-15T12:39:05.391Z,1.55
2023-04-15T12:41:33.108Z,1.67
2023-04-15T12:43:59.766Z,1.75
2023-04-15T12:46:27.236Z,1.52
2023-04-15T12:48:53.887Z,1.42
2023-04-15T12:51:23.194Z,1.50
2023-04-15T12:53:50.115Z,1.50
2023-04-15T12:56:17.155Z,1.70
2023-04-15T12:58:43.639Z,1.50
2023-04-15T13:01:11.285Z,1.50
2023-04-15T13:03:39.018Z,1.58
2023-04-15T13:06:06.133Z,1.42
2023-04-15T13:08:33.070Z,1.20
2023-04-15T13:10:59.686Z,1.08
2023-04-15T13:13:27.353Z,1.30
2023-04-15T13:15:53.894Z,1.50
2023-04-15T13:18:20.569Z,1.65
2023-04-15T13:20:47.123Z,1.80
2023-04-15T13:23:13.603Z,1.25
2023-04-15T13:25:40.040Z,1.38
2023-04-15T13:28:06.667Z,1.52
2023-04-15T13:30:33.210Z,1.55
2023-04-15T13:32:59.883Z,1.20
2023-04-15T13:35:26.526Z,1.50
2023-04-15T13:37:55.168Z,1.13
2023-04-15T13:40:21.901Z,1.27
2023-04-15T13:42:48.720Z,1.50
2023-04-15T13:45:16.208Z,2.00
2023-04-15T13:47:42.888Z,1.27
2023-04-15T13:50:10.072Z,1.08
2023-04-15T13:52:36.589Z,1.75
2023-04-15T13:55:08.381Z,1.02
2023-04-15T13:57:46.719Z,1.00
2023-04-15T14:00:14.060Z,1.25
2023-04-15T14:02:42.326Z,1.15
2023-04-15T14:05:09.501Z,0.63
2023-04-15T14:07:36.598Z,0.82
2023-04-15T14:10:03.407Z,1.02
2023-04-15T14:12:29.890Z,0.93
2023-04-15T14:14:56.461Z,1.23
2023-04-15T14:17:23.064Z,0.88
2023-04-15T14:19:49.547Z,1.00
2023-04-15T14:22:16.362Z,1.27
2023-04-15T14:24:42.851Z,1.15
2023-04-15T14:27:09.570Z,1.50
2023-04-15T14:29:36.165Z,1.90
2023-04-15T14:32:11.392Z,1.48
2023-04-15T14:34:39.021Z,1.52
2023-04-15T14:37:05.608Z,1.08
2023-04-15T14:39:32.179Z,1.42
2023-04-15T14:41:59.011Z,1.40
2023-04-15T14:44:25.755Z,1.30
2023-04-15T14:46:52.317Z,1.45
2023-04-15T14:49:19.999Z,1.15
2023-04-15T14:51:46.633Z,1.30
2023-04-15T14:54:13.174Z,1.00
2023-04-15T14:56:39.744Z,0.90
2023-04-15T14:59:06.333Z,1.08
2023-04-15T15:01:34.290Z,1.23
2023-04-15T15:04:01.387Z,1.25
2023-04-15T15:06:28.013Z,1.02
2023-04-15T15:08:54.456Z,1.23
2023-04-15T15:11:21.073Z,1.20
2023-04-15T15:13:47.558Z,0.77
2023-04-15T15:16:14.737Z,0.93
2023-04-15T15:18:41.427Z,0.90
2023-04-15T15:21:07.954Z,1.70
2023-04-15T15:23:34.495Z,1.10
2023-04-15T15:26:01.303Z,0.82
2023-04-15T15:28:27.868Z,0.93
2023-04-15T15:30:54.906Z,1.25
2023-04-15T15:33:21.644Z,0.95
2023-04-15T15:35:48.161Z,0.73
2023-04-15T15:38:14.970Z,1.70
2023-04-15T15:40:41.661Z,0.80
2023-04-15T15:43:08.404Z,0.93
2023-04-15T15:45:35.608Z,1.02
2023-04-15T15:48:02.226Z,0.88
2023-04-15T15:50:28.874Z,0.82
2023-04-15T15:52:55.744Z,1.10
2023-04-15T15:55:23.454Z,1.40
2023-04-15T15:57:50.054Z,1.17
2023-04-15T16:00:16.708Z,1.00
2023-04-15T16:05:13.365Z,1.40
2023-04-15T16:07:39.918Z,0.93
2023-04-15T16:10:07.098Z,1.17
2023-04-15T16:12:35.035Z,1.23
2023-04-15T16:15:01.851Z,1.33
2023-04-15T16:17:28.417Z,1.70
2023-04-15T16:20:00.100Z,1.38
2023-04-15T16:22:27.731Z,0.85
2023-04-15T16:24:54.335Z,1.02
2023-04-15T16:27:21.004Z,0.73
2023-04-15T16:29:47.759Z,0.90
2023-04-15T16:32:14.469Z,1.17
2023-04-15T16:34:41.382Z,1.00
2023-04-15T16:37:07.963Z,1.35
2023-04-15T16:39:34.575Z,0.95
2023-04-15T16:42:02.619Z,0.90
2023-04-15T16:44:30.080Z,0.82
2023-04-15T16:46:56.832Z,0.90
2023-04-15T16:49:23.379Z,1.40
2023-04-15T16:51:49.860Z,0.90
2023-04-15T16:54:16.429Z,1.50
2023-04-15T16:56:42.958Z,1.08
2023-04-15T16:59:09.512Z,1.13
2023-04-15T17:01:39.597Z,1.10
2023-04-15T17:04:07.332Z,0.82
2023-04-15T17:06:33.975Z,1.08
2023-04-15T17:09:00.630Z,0.90
2023-04-15T17:11:28.219Z,0.45
2023-04-15T17:13:54.765Z,1.00
2023-04-15T17:16:21.656Z,0.80
2023-04-15T17:18:50.214Z,1.17
2023-04-15T17:21:17.593Z,1.05
2023-04-15T17:23:44.288Z,1.30
2023-04-15T17:26:11.185Z,0.75
2023-04-15T17:28:38.059Z,0.93
2023-04-15T17:31:05.089Z,1.00
2023-04-15T17:34:00.317Z,0.85
2023-04-15T17:36:18.329Z,0.95
2023-04-15T17:38:45.559Z,0.98
2023-04-15T17:41:12.222Z,0.90
2023-04-15T17:43:38.788Z,0.85
2023-04-15T17:46:07.227Z,0.98
2023-04-15T17:48:34.326Z,0.93
2023-04-15T17:51:01.031Z,1.10
2023-04-15T17:53:27.693Z,0.55
2023-04-15T17:55:54.463Z,1.25
2023-04-15T17:58:21.297Z,0.85
2023-04-15T18:00:48.338Z,1.00
2023-04-15T18:03:15.532Z,1.00
2023-04-15T18:05:42.804Z,1.63
2023-04-15T18:08:09.697Z,0.90
2023-04-15T18:10:36.983Z,0.85
2023-04-15T18:13:04.761Z,1.25
2023-04-15T18:15:31.697Z,1.27
2023-04-15T18:17:59.124Z,1.20
2023-04-15T18:20:25.777Z,0.93
2023-04-15T18:22:52.698Z,1.00
2023-04-15T18:25:19.380Z,0.82
2023-04-15T18:27:45.940Z,0.68
2023-04-15T18:30:12.892Z,0.88
2023-04-15T18:32:39.638Z,1.13
2023-04-15T18:35:06.896Z,0.82
2023-04-15T18:37:33.514Z,0.80
2023-04-15T18:40:00.053Z,0.80
2023-04-15T18:42:26.837Z,0.63
2023-04-15T18:44:53.901Z,1.05
2023-04-15T18:47:20.658Z,1.02
2023-04-15T18:49:47.200Z,1.33
2023-04-15T18:52:13.939Z,1.23
2023-04-15T18:54:40.433Z,0.95
2023-04-15T18:57:07.026Z,1.10
2023-04-15T18:59:33.927Z,0.90
2023-04-15T19:02:01.338Z,0.68
2023-04-15T19:04:29.494Z,1.23
2023-04-15T19:06:56.453Z,0.93
2023-04-15T19:09:23.051Z,0.73
2023-04-15T19:11:49.692Z,1.15
2023-04-15T19:14:17.756Z,1.02
2023-04-15T19:16:44.444Z,0.90
2023-04-15T19:19:14.496Z,0.93
2023-04-15T19:21:41.682Z,0.98
2023-04-15T19:24:08.290Z,1.30
2023-04-15T19:26:34.831Z,1.02
2023-04-15T19:29:01.373Z,1.67
2023-04-15T19:31:27.952Z,0.90
2023-04-15T19:33:54.461Z,1.15
2023-04-15T19:36:21.384Z,1.20
2023-04-15T19:38:47.946Z,1.20
2023-04-15T19:41:15.536Z,1.27
2023-04-15T19:43:42.123Z,1.20
2023-04-15T19:46:08.795Z,1.25
2023-04-15T19:48:35.431Z,1.05
2023-04-15T19:51:02.007Z,0.82
2023-04-15T19:53:29.268Z,0.98
2023-04-15T19:55:56.011Z,1.30
2023-04-15T19:58:22.546Z,1.25
2023-04-15T20:00:49.116Z,1.17
2023-04-15T20:03:16.245Z,1.10
2023-04-15T20:05:42.830Z,1.42
2023-04-15T20:08:09.351Z,1.13
2023-04-15T20:10:37.023Z,1.23
2023-04-15T20:13:03.687Z,1.10
2023-04-15T20:15:30.777Z,0.82
2023-04-15T20:17:57.516Z,1.48
2023-04-15T20:20:24.059Z,1.10
2023-04-15T20:22:51.049Z,1.17
2023-04-15T20:25:17.675Z,0.90
2023-04-15T20:27:44.497Z,1.17
2023-04-15T20:30:11.299Z,1.40
2023-04-15T20:32:38.678Z,1.20
2023-04-15T20:35:06.974Z,0.88
2023-04-15T20:37:33.846Z,1.27
2023-04-15T20:40:01.236Z,1.23
2023-04-15T20:42:33.613Z,1.20
2023-04-15T20:45:00.581Z,1.17
2023-04-15T20:47:27.190Z,1.52
2023-04-15T20:49:53.902Z,1.35
2023-04-15T20:52:20.782Z,1.52
2023-04-15T20:54:47.288Z,1.50
2023-04-15T20:57:13.760Z,1.85
2023-04-15T20:59:40.381Z,1.33
2023-04-15T21:02:07.156Z,1.83
2023-04-15T21:04:33.833Z,1.88
2023-04-15T21:07:00.354Z,1.55
2023-04-15T21:09:26.860Z,1.55
2023-04-15T21:12:01.067Z,1.50
2023-04-15T21:14:28.634Z,1.45
2023-04-15T21:16:56.835Z,2.22
2023-04-15T21:19:23.352Z,1.40
2023-04-15T21:21:50.031Z,1.60
2023-04-15T21:24:16.608Z,2.33
2023-04-15T21:26:43.120Z,1.70
2023-04-15T21:29:11.612Z,1.33
2023-04-15T21:31:38.879Z,1.52
2023-04-15T21:34:05.449Z,1.02
2023-04-15T21:36:31.955Z,1.23
2023-04-15T21:38:58.538Z,1.10
2023-04-15T21:41:25.287Z,1.80
2023-04-15T21:43:51.942Z,1.08
2023-04-15T21:46:22.697Z,1.40
2023-04-15T21:48:52.729Z,1.35
2023-04-15T21:51:19.304Z,2.13
2023-04-15T21:53:45.924Z,1.52
2023-04-15T21:56:12.484Z,1.33
2023-04-15T21:58:39.056Z,1.63
2023-04-15T22:01:05.697Z,1.30
2023-04-15T22:03:34.251Z,1.15
2023-04-15T22:06:02.354Z,1.38
2023-04-15T22:08:28.957Z,1.65
2023-04-15T22:10:55.595Z,1.23
2023-04-15T22:13:22.224Z,1.40
2023-04-15T22:15:48.836Z,1.45
2023-04-15T22:18:15.550Z,1.38
2023-04-15T22:20:42.192Z,1.00
2023-04-15T22:23:09.799Z,1.40
2023-04-15T22:25:37.523Z,1.35
2023-04-15T22:28:06.898Z,1.63
2023-04-15T22:30:37.887Z,2.08
2023-04-15T22:33:05.749Z,1.85
2023-04-15T22:35:32.528Z,1.77
2023-04-15T22:37:59.023Z,1.83
2023-04-15T22:40:25.735Z,1.70
2023-04-15T22:42:52.410Z,2.25
2023-04-15T22:45:18.939Z,1.48
2023-04-15T22:47:45.698Z,1.58
2023-04-15T22:50:12.774Z,1.70
2023-04-15T22:52:39.408Z,2.40
2023-04-15T22:55:06.801Z,2.30
2023-04-15T22:57:33.345Z,3.20
2023-04-15T23:00:00.212Z,2.63
2023-04-15T23:02:27.184Z,2.25
2023-04-15T23:04:53.995Z,1.67
2023-04-15T23:07:20.650Z,2.30
2023-04-15T23:09:47.188Z,1.90
2023-04-15T23:12:14.015Z,2.08
2023-04-15T23:14:40.492Z,1.50
2023-04-15T23:17:07.097Z,2.15
2023-04-15T23:19:33.589Z,2.08
2023-04-15T23:22:00.354Z,2.35
2023-04-15T23:24:26.813Z,1.58
2023-04-15T23:26:53.330Z,1.98
2023-04-15T23:29:19.843Z,1.80
2023-04-15T23:31:46.404Z,2.00
2023-04-15T23:34:12.831Z,2.40
2023-04-15T23:36:39.323Z,2.13
2023-04-15T23:39:05.926Z,2.58
2023-04-15T23:41:32.437Z,2.05
2023-04-15T23:43:58.950Z,2.35
2023-04-15T23:46:25.558Z,2.17
2023-04-15T23:48:52.037Z,2.80
2023-04-15T23:51:18.508Z,2.00
2023-04-15T23:53:45.059Z,2.13
2023-04-15T23:56:11.566Z,1.58
2023-04-15T23:58:38.034Z,2.40
